sensor_id;sensor_type;location;lat;lon;timestamp;temperature;humidity
680;DHT22;322;48.846;9.230;2024-01-30T00:00:17;1.40;99.90
680;DHT22;322;48.846;9.230;2024-01-30T00:02:45;1.30;99.90
680;DHT22;322;48.846;9.230;2024-01-30T00:05:13;1.30;99.90
680;DHT22;322;48.846;9.230;2024-01-30T00:07:41;1.20;99.90
680;DHT22;322;48.846;9.230;2024-01-30T00:10:10;1.10;99.90
680;DHT22;322;48.846;9.230;2024-01-30T00:12:39;1.10;99.90
680;DHT22;322;48.846;9.230;2024-01-30T00:15:10;1.10;99.90
680;DHT22;322;48.846;9.230;2024-01-30T00:17:37;1.10;99.90
680;DHT22;322;48.846;9.230;2024-01-30T00:20:06;1.20;99.90
680;DHT22;322;48.846;9.230;2024-01-30T00:22:36;1.10;99.90
680;DHT22;322;48.846;9.230;2024-01-30T00:25:04;1.00;99.90
680;DHT22;322;48.846;9.230;2024-01-30T00:27:32;1.00;99.90
680;DHT22;322;48.846;9.230;2024-01-30T00:30:01;1.10;99.90
680;DHT22;322;48.846;9.230;2024-01-30T00:32:29;1.30;99.90
680;DHT22;322;48.846;9.230;2024-01-30T00:34:57;1.30;99.90
680;DHT22;322;48.846;9.230;2024-01-30T00:37:25;1.20;99.90
680;DHT22;322;48.846;9.230;2024-01-30T00:39:53;1.20;99.90
680;DHT22;322;48.846;9.230;2024-01-30T00:42:21;1.30;99.90
680;DHT22;322;48.846;9.230;2024-01-30T00:44:50;1.30;99.90
680;DHT22;322;48.846;9.230;2024-01-30T00:47:22;1.40;99.90
680;DHT22;322;48.846;9.230;2024-01-30T00:49:50;1.40;99.90
680;DHT22;322;48.846;9.230;2024-01-30T00:52:17;1.40;99.90
680;DHT22;322;48.846;9.230;2024-01-30T00:54:45;1.40;99.90
680;DHT22;322;48.846;9.230;2024-01-30T00:57:13;1.40;99.90
680;DHT22;322;48.846;9.230;2024-01-30T00:59:41;1.40;99.90
680;DHT22;322;48.846;9.230;2024-01-30T01:02:09;1.30;99.90
680;DHT22;322;48.846;9.230;2024-01-30T01:04:38;1.40;99.90
680;DHT22;322;48.846;9.230;2024-01-30T01:07:06;1.40;99.90
680;DHT22;322;48.846;9.230;2024-01-30T01:09:34;1.40;99.90
680;DHT22;322;48.846;9.230;2024-01-30T01:12:01;1.40;99.90
680;DHT22;322;48.846;9.230;2024-01-30T01:14:29;1.40;99.90
680;DHT22;322;48.846;9.230;2024-01-30T01:16:57;1.40;99.90
680;DHT22;322;48.846;9.230;2024-01-30T01:19:25;1.40;99.90
680;DHT22;322;48.846;9.230;2024-01-30T01:21:57;1.40;99.90
680;DHT22;322;48.846;9.230;2024-01-30T01:24:25;1.50;99.90
680;DHT22;322;48.846;9.230;2024-01-30T01:26:53;1.50;99.90
680;DHT22;322;48.846;9.230;2024-01-30T01:29:22;1.50;99.90
680;DHT22;322;48.846;9.230;2024-01-30T01:31:55;1.50;99.90
680;DHT22;322;48.846;9.230;2024-01-30T01:34:23;1.50;99.90
680;DHT22;322;48.846;9.230;2024-01-30T01:36:57;1.50;99.90
680;DHT22;322;48.846;9.230;2024-01-30T01:39:25;1.50;99.90
680;DHT22;322;48.846;9.230;2024-01-30T01:41:53;1.40;99.90
680;DHT22;322;48.846;9.230;2024-01-30T01:44:21;1.30;99.90
680;DHT22;322;48.846;9.230;2024-01-30T01:46:49;1.40;99.90
680;DHT22;322;48.846;9.230;2024-01-30T01:49:20;1.40;99.90
680;DHT22;322;48.846;9.230;2024-01-30T01:51:51;1.30;99.90
680;DHT22;322;48.846;9.230;2024-01-30T01:54:21;1.30;99.90
680;DHT22;322;48.846;9.230;2024-01-30T01:56:49;1.40;99.90
680;DHT22;322;48.846;9.230;2024-01-30T01:59:18;1.40;99.90
680;DHT22;322;48.846;9.230;2024-01-30T02:01:46;1.40;99.90
680;DHT22;322;48.846;9.230;2024-01-30T02:04:16;1.20;99.90
680;DHT22;322;48.846;9.230;2024-01-30T02:06:44;1.00;99.90
680;DHT22;322;48.846;9.230;2024-01-30T02:09:12;1.00;99.90
680;DHT22;322;48.846;9.230;2024-01-30T02:11:41;1.10;99.90
680;DHT22;322;48.846;9.230;2024-01-30T02:14:09;1.10;99.90
680;DHT22;322;48.846;9.230;2024-01-30T02:16:37;1.10;99.90
680;DHT22;322;48.846;9.230;2024-01-30T02:19:05;1.20;99.90
680;DHT22;322;48.846;9.230;2024-01-30T02:21:35;1.00;99.90
680;DHT22;322;48.846;9.230;2024-01-30T02:24:04;0.90;99.90
680;DHT22;322;48.846;9.230;2024-01-30T02:26:33;0.80;99.90
680;DHT22;322;48.846;9.230;2024-01-30T02:29:01;0.90;99.90
680;DHT22;322;48.846;9.230;2024-01-30T02:31:29;1.00;99.90
680;DHT22;322;48.846;9.230;2024-01-30T02:33:57;1.00;99.90
680;DHT22;322;48.846;9.230;2024-01-30T02:36:25;1.00;99.90
680;DHT22;322;48.846;9.230;2024-01-30T02:38:54;0.90;99.90
680;DHT22;322;48.846;9.230;2024-01-30T02:41:22;0.90;99.90
680;DHT22;322;48.846;9.230;2024-01-30T02:43:50;0.80;99.90
680;DHT22;322;48.846;9.230;2024-01-30T02:46:18;0.90;99.90
680;DHT22;322;48.846;9.230;2024-01-30T02:48:46;0.90;99.90
680;DHT22;322;48.846;9.230;2024-01-30T02:51:14;0.80;99.90
680;DHT22;322;48.846;9.230;2024-01-30T02:53:42;0.80;99.90
680;DHT22;322;48.846;9.230;2024-01-30T02:56:12;0.80;99.90
680;DHT22;322;48.846;9.230;2024-01-30T02:58:40;0.70;99.90
680;DHT22;322;48.846;9.230;2024-01-30T03:01:08;0.70;99.90
680;DHT22;322;48.846;9.230;2024-01-30T03:03:36;0.70;99.90
680;DHT22;322;48.846;9.230;2024-01-30T03:06:05;0.70;99.90
680;DHT22;322;48.846;9.230;2024-01-30T03:08:33;0.70;99.90
680;DHT22;322;48.846;9.230;2024-01-30T03:11:01;0.70;99.90
680;DHT22;322;48.846;9.230;2024-01-30T03:13:31;0.70;99.90
680;DHT22;322;48.846;9.230;2024-01-30T03:15:58;0.60;99.90
680;DHT22;322;48.846;9.230;2024-01-30T03:18:26;0.50;99.90
680;DHT22;322;48.846;9.230;2024-01-30T03:20:54;0.40;99.90
680;DHT22;322;48.846;9.230;2024-01-30T03:23:22;0.40;99.90
680;DHT22;322;48.846;9.230;2024-01-30T03:25:50;0.30;99.90
680;DHT22;322;48.846;9.230;2024-01-30T03:28:18;0.30;99.90
680;DHT22;322;48.846;9.230;2024-01-30T03:30:47;0.30;99.90
680;DHT22;322;48.846;9.230;2024-01-30T03:33:15;0.30;99.90
680;DHT22;322;48.846;9.230;2024-01-30T03:35:43;0.30;99.90
680;DHT22;322;48.846;9.230;2024-01-30T03:38:11;0.40;99.90
680;DHT22;322;48.846;9.230;2024-01-30T03:40:39;0.40;99.90
680;DHT22;322;48.846;9.230;2024-01-30T03:43:07;0.30;99.90
680;DHT22;322;48.846;9.230;2024-01-30T03:45:35;0.30;99.90
680;DHT22;322;48.846;9.230;2024-01-30T03:48:05;0.30;99.90
680;DHT22;322;48.846;9.230;2024-01-30T03:50:34;0.20;99.90
680;DHT22;322;48.846;9.230;2024-01-30T03:53:02;0.20;99.90
680;DHT22;322;48.846;9.230;2024-01-30T03:55:30;0.20;99.90
680;DHT22;322;48.846;9.230;2024-01-30T03:57:58;0.40;99.90
680;DHT22;322;48.846;9.230;2024-01-30T04:00:26;0.40;99.90
680;DHT22;322;48.846;9.230;2024-01-30T04:02:53;0.50;99.90
680;DHT22;322;48.846;9.230;2024-01-30T04:05:24;0.50;99.90
680;DHT22;322;48.846;9.230;2024-01-30T04:07:52;0.50;99.90
680;DHT22;322;48.846;9.230;2024-01-30T04:10:20;0.50;99.90
680;DHT22;322;48.846;9.230;2024-01-30T04:12:48;0.50;99.90
680;DHT22;322;48.846;9.230;2024-01-30T04:15:16;0.40;99.90
680;DHT22;322;48.846;9.230;2024-01-30T04:17:44;0.40;99.90
680;DHT22;322;48.846;9.230;2024-01-30T04:20:14;0.30;99.90
680;DHT22;322;48.846;9.230;2024-01-30T04:22:45;0.20;99.90
680;DHT22;322;48.846;9.230;2024-01-30T04:25:13;0.30;99.90
680;DHT22;322;48.846;9.230;2024-01-30T04:27:41;0.30;99.90
680;DHT22;322;48.846;9.230;2024-01-30T04:30:10;0.30;99.90
680;DHT22;322;48.846;9.230;2024-01-30T04:32:38;0.30;99.90
680;DHT22;322;48.846;9.230;2024-01-30T04:35:06;0.30;99.90
680;DHT22;322;48.846;9.230;2024-01-30T04:37:38;0.20;99.90
680;DHT22;322;48.846;9.230;2024-01-30T04:40:08;0.20;99.90
680;DHT22;322;48.846;9.230;2024-01-30T04:42:36;0.20;99.90
680;DHT22;322;48.846;9.230;2024-01-30T04:45:06;0.10;99.90
680;DHT22;322;48.846;9.230;2024-01-30T04:47:34;0.20;99.90
680;DHT22;322;48.846;9.230;2024-01-30T04:50:02;0.30;99.90
680;DHT22;322;48.846;9.230;2024-01-30T04:52:31;0.40;99.90
680;DHT22;322;48.846;9.230;2024-01-30T04:54:59;0.40;99.90
680;DHT22;322;48.846;9.230;2024-01-30T04:57:29;0.40;99.90
680;DHT22;322;48.846;9.230;2024-01-30T04:59:57;0.30;99.90
680;DHT22;322;48.846;9.230;2024-01-30T05:02:25;0.20;99.90
680;DHT22;322;48.846;9.230;2024-01-30T05:04:53;0.10;99.90
680;DHT22;322;48.846;9.230;2024-01-30T05:07:21;0.20;99.90
680;DHT22;322;48.846;9.230;2024-01-30T05:09:49;0.30;99.90
680;DHT22;322;48.846;9.230;2024-01-30T05:12:16;0.40;99.90
680;DHT22;322;48.846;9.230;2024-01-30T05:14:45;0.40;99.90
680;DHT22;322;48.846;9.230;2024-01-30T05:17:13;0.40;99.90
680;DHT22;322;48.846;9.230;2024-01-30T05:19:43;0.30;99.90
680;DHT22;322;48.846;9.230;2024-01-30T05:22:11;0.40;99.90
680;DHT22;322;48.846;9.230;2024-01-30T05:24:42;0.30;99.90
680;DHT22;322;48.846;9.230;2024-01-30T05:27:10;0.40;99.90
680;DHT22;322;48.846;9.230;2024-01-30T05:29:40;0.50;99.90
680;DHT22;322;48.846;9.230;2024-01-30T05:32:09;0.60;99.90
680;DHT22;322;48.846;9.230;2024-01-30T05:34:37;0.60;99.90
680;DHT22;322;48.846;9.230;2024-01-30T05:37:05;0.60;99.90
680;DHT22;322;48.846;9.230;2024-01-30T05:39:34;0.50;99.90
680;DHT22;322;48.846;9.230;2024-01-30T05:42:02;0.50;99.90
680;DHT22;322;48.846;9.230;2024-01-30T05:44:30;0.40;99.90
680;DHT22;322;48.846;9.230;2024-01-30T05:46:58;0.40;99.90
680;DHT22;322;48.846;9.230;2024-01-30T05:49:27;0.40;99.90
680;DHT22;322;48.846;9.230;2024-01-30T05:51:55;0.40;99.90
680;DHT22;322;48.846;9.230;2024-01-30T05:54:23;0.40;99.90
680;DHT22;322;48.846;9.230;2024-01-30T05:56:51;0.40;99.90
680;DHT22;322;48.846;9.230;2024-01-30T05:59:19;0.50;99.90
680;DHT22;322;48.846;9.230;2024-01-30T06:01:47;0.60;99.90
680;DHT22;322;48.846;9.230;2024-01-30T06:04:15;0.60;99.90
680;DHT22;322;48.846;9.230;2024-01-30T06:06:45;0.60;99.90
680;DHT22;322;48.846;9.230;2024-01-30T06:09:13;0.60;99.90
680;DHT22;322;48.846;9.230;2024-01-30T06:11:41;0.50;99.90
680;DHT22;322;48.846;9.230;2024-01-30T06:14:09;0.60;99.90
680;DHT22;322;48.846;9.230;2024-01-30T06:16:37;0.70;99.90
680;DHT22;322;48.846;9.230;2024-01-30T06:19:11;0.60;99.90
680;DHT22;322;48.846;9.230;2024-01-30T06:21:39;0.50;99.90
680;DHT22;322;48.846;9.230;2024-01-30T06:24:08;0.50;99.90
680;DHT22;322;48.846;9.230;2024-01-30T06:26:36;0.40;99.90
680;DHT22;322;48.846;9.230;2024-01-30T06:29:04;0.40;99.90
680;DHT22;322;48.846;9.230;2024-01-30T06:31:32;0.30;99.90
680;DHT22;322;48.846;9.230;2024-01-30T06:34:00;0.30;99.90
680;DHT22;322;48.846;9.230;2024-01-30T06:36:28;0.30;99.90
680;DHT22;322;48.846;9.230;2024-01-30T06:38:56;0.30;99.90
680;DHT22;322;48.846;9.230;2024-01-30T06:41:25;0.30;99.90
680;DHT22;322;48.846;9.230;2024-01-30T06:43:54;0.30;99.90
680;DHT22;322;48.846;9.230;2024-01-30T06:46:21;0.30;99.90
680;DHT22;322;48.846;9.230;2024-01-30T06:48:49;0.30;99.90
680;DHT22;322;48.846;9.230;2024-01-30T06:51:17;0.30;99.90
680;DHT22;322;48.846;9.230;2024-01-30T06:53:45;0.30;99.90
680;DHT22;322;48.846;9.230;2024-01-30T06:56:13;0.40;99.90
680;DHT22;322;48.846;9.230;2024-01-30T06:58:42;0.40;99.90
680;DHT22;322;48.846;9.230;2024-01-30T07:01:11;0.30;99.90
680;DHT22;322;48.846;9.230;2024-01-30T07:03:39;0.30;99.90
680;DHT22;322;48.846;9.230;2024-01-30T07:06:07;0.40;99.90
680;DHT22;322;48.846;9.230;2024-01-30T07:08:35;0.50;99.90
680;DHT22;322;48.846;9.230;2024-01-30T07:11:04;0.60;99.90
680;DHT22;322;48.846;9.230;2024-01-30T07:13:32;0.60;99.90
680;DHT22;322;48.846;9.230;2024-01-30T07:16:06;0.70;99.90
680;DHT22;322;48.846;9.230;2024-01-30T07:18:34;0.70;99.90
680;DHT22;322;48.846;9.230;2024-01-30T07:21:02;0.70;99.90
680;DHT22;322;48.846;9.230;2024-01-30T07:23:30;0.70;99.90
680;DHT22;322;48.846;9.230;2024-01-30T07:26:01;0.70;99.90
680;DHT22;322;48.846;9.230;2024-01-30T07:28:29;0.70;99.90
680;DHT22;322;48.846;9.230;2024-01-30T07:30:57;0.70;99.90
680;DHT22;322;48.846;9.230;2024-01-30T07:33:26;0.70;99.90
680;DHT22;322;48.846;9.230;2024-01-30T07:35:54;0.80;99.90
680;DHT22;322;48.846;9.230;2024-01-30T07:38:22;0.80;99.90
680;DHT22;322;48.846;9.230;2024-01-30T07:40:50;0.80;99.90
680;DHT22;322;48.846;9.230;2024-01-30T07:43:18;0.90;99.90
680;DHT22;322;48.846;9.230;2024-01-30T07:45:47;0.90;99.90
680;DHT22;322;48.846;9.230;2024-01-30T07:48:15;1.10;99.90
680;DHT22;322;48.846;9.230;2024-01-30T07:50:44;1.10;99.90
680;DHT22;322;48.846;9.230;2024-01-30T07:53:12;1.10;99.90
680;DHT22;322;48.846;9.230;2024-01-30T07:55:40;1.20;99.90
680;DHT22;322;48.846;9.230;2024-01-30T07:58:10;1.30;99.90
680;DHT22;322;48.846;9.230;2024-01-30T08:00:38;1.40;99.90
680;DHT22;322;48.846;9.230;2024-01-30T08:03:06;1.40;99.90
680;DHT22;322;48.846;9.230;2024-01-30T08:05:34;1.40;99.90
680;DHT22;322;48.846;9.230;2024-01-30T08:08:04;1.50;99.90
680;DHT22;322;48.846;9.230;2024-01-30T08:10:31;1.70;99.90
680;DHT22;322;48.846;9.230;2024-01-30T08:13:00;1.80;99.90
680;DHT22;322;48.846;9.230;2024-01-30T08:15:28;1.90;99.90
680;DHT22;322;48.846;9.230;2024-01-30T08:17:56;2.00;99.90
680;DHT22;322;48.846;9.230;2024-01-30T08:20:25;2.20;99.90
680;DHT22;322;48.846;9.230;2024-01-30T08:22:56;2.40;99.90
680;DHT22;322;48.846;9.230;2024-01-30T08:25:25;2.60;99.90
680;DHT22;322;48.846;9.230;2024-01-30T08:27:55;2.80;99.90
680;DHT22;322;48.846;9.230;2024-01-30T08:30:25;3.10;99.90
680;DHT22;322;48.846;9.230;2024-01-30T08:32:53;3.30;99.90
680;DHT22;322;48.846;9.230;2024-01-30T08:35:21;3.50;99.90
680;DHT22;322;48.846;9.230;2024-01-30T08:37:49;3.80;99.90
680;DHT22;322;48.846;9.230;2024-01-30T08:40:17;4.00;99.90
680;DHT22;322;48.846;9.230;2024-01-30T08:42:46;4.30;99.90
680;DHT22;322;48.846;9.230;2024-01-30T08:45:23;4.50;99.90
680;DHT22;322;48.846;9.230;2024-01-30T08:47:51;4.60;99.90
680;DHT22;322;48.846;9.230;2024-01-30T08:50:19;4.50;99.90
680;DHT22;322;48.846;9.230;2024-01-30T08:52:49;4.50;99.90
680;DHT22;322;48.846;9.230;2024-01-30T08:55:17;4.60;99.90
680;DHT22;322;48.846;9.230;2024-01-30T08:57:47;4.70;99.90
680;DHT22;322;48.846;9.230;2024-01-30T09:00:15;4.90;99.90
680;DHT22;322;48.846;9.230;2024-01-30T09:02:43;5.00;99.90
680;DHT22;322;48.846;9.230;2024-01-30T09:05:12;5.10;99.90
680;DHT22;322;48.846;9.230;2024-01-30T09:07:40;5.00;99.90
680;DHT22;322;48.846;9.230;2024-01-30T09:10:14;4.90;99.90
680;DHT22;322;48.846;9.230;2024-01-30T09:12:48;4.90;99.90
680;DHT22;322;48.846;9.230;2024-01-30T09:15:16;4.90;99.90
680;DHT22;322;48.846;9.230;2024-01-30T09:17:44;5.00;99.90
680;DHT22;322;48.846;9.230;2024-01-30T09:20:12;5.10;99.90
680;DHT22;322;48.846;9.230;2024-01-30T09:22:40;5.20;99.90
680;DHT22;322;48.846;9.230;2024-01-30T09:25:08;5.40;99.90
680;DHT22;322;48.846;9.230;2024-01-30T09:27:36;5.60;99.90
680;DHT22;322;48.846;9.230;2024-01-30T09:30:07;5.80;99.90
680;DHT22;322;48.846;9.230;2024-01-30T09:32:35;6.00;99.90
680;DHT22;322;48.846;9.230;2024-01-30T09:35:04;6.20;99.90
680;DHT22;322;48.846;9.230;2024-01-30T09:37:32;6.40;99.90
680;DHT22;322;48.846;9.230;2024-01-30T09:40:01;6.50;99.90
680;DHT22;322;48.846;9.230;2024-01-30T09:42:34;6.80;99.90
680;DHT22;322;48.846;9.230;2024-01-30T09:45:03;7.20;99.90
680;DHT22;322;48.846;9.230;2024-01-30T09:47:41;7.50;99.90
680;DHT22;322;48.846;9.230;2024-01-30T09:50:10;7.80;99.90
680;DHT22;322;48.846;9.230;2024-01-30T09:52:40;8.10;99.90
680;DHT22;322;48.846;9.230;2024-01-30T09:55:08;8.30;99.90
680;DHT22;322;48.846;9.230;2024-01-30T09:57:37;8.50;99.90
680;DHT22;322;48.846;9.230;2024-01-30T10:00:06;8.40;99.90
680;DHT22;322;48.846;9.230;2024-01-30T10:02:38;8.30;99.90
680;DHT22;322;48.846;9.230;2024-01-30T10:05:07;8.20;99.90
680;DHT22;322;48.846;9.230;2024-01-30T10:07:35;8.40;99.90
680;DHT22;322;48.846;9.230;2024-01-30T10:10:05;8.40;99.90
680;DHT22;322;48.846;9.230;2024-01-30T10:12:34;8.60;99.90
680;DHT22;322;48.846;9.230;2024-01-30T10:15:02;8.70;99.90
680;DHT22;322;48.846;9.230;2024-01-30T10:17:30;9.10;99.90
680;DHT22;322;48.846;9.230;2024-01-30T10:20:04;9.10;99.90
680;DHT22;322;48.846;9.230;2024-01-30T10:22:32;9.20;99.90
680;DHT22;322;48.846;9.230;2024-01-30T10:25:00;9.30;99.90
680;DHT22;322;48.846;9.230;2024-01-30T10:27:32;9.50;99.90
680;DHT22;322;48.846;9.230;2024-01-30T10:30:00;9.80;99.90
680;DHT22;322;48.846;9.230;2024-01-30T10:32:30;9.90;99.90
680;DHT22;322;48.846;9.230;2024-01-30T10:34:58;10.10;99.00
680;DHT22;322;48.846;9.230;2024-01-30T10:37:30;10.00;98.50
680;DHT22;322;48.846;9.230;2024-01-30T10:40:03;9.90;98.60
680;DHT22;322;48.846;9.230;2024-01-30T10:42:32;9.90;98.50
680;DHT22;322;48.846;9.230;2024-01-30T10:45:06;10.00;98.20
680;DHT22;322;48.846;9.230;2024-01-30T10:47:36;10.00;98.80
680;DHT22;322;48.846;9.230;2024-01-30T10:50:05;10.00;98.20
680;DHT22;322;48.846;9.230;2024-01-30T10:52:36;10.00;98.70
680;DHT22;322;48.846;9.230;2024-01-30T10:55:05;10.00;98.00
680;DHT22;322;48.846;9.230;2024-01-30T10:57:34;10.10;98.70
680;DHT22;322;48.846;9.230;2024-01-30T11:00:05;10.00;98.70
680;DHT22;322;48.846;9.230;2024-01-30T11:02:37;10.00;97.80
680;DHT22;322;48.846;9.230;2024-01-30T11:05:06;10.10;96.30
680;DHT22;322;48.846;9.230;2024-01-30T11:07:39;10.00;96.90
680;DHT22;322;48.846;9.230;2024-01-30T11:10:08;10.20;97.50
680;DHT22;322;48.846;9.230;2024-01-30T11:12:40;10.30;97.80
680;DHT22;322;48.846;9.230;2024-01-30T11:15:12;10.50;95.50
680;DHT22;322;48.846;9.230;2024-01-30T11:17:42;10.60;94.70
680;DHT22;322;48.846;9.230;2024-01-30T11:20:11;10.60;93.70
680;DHT22;322;48.846;9.230;2024-01-30T11:22:44;10.60;96.60
680;DHT22;322;48.846;9.230;2024-01-30T11:25:14;10.60;97.50
680;DHT22;322;48.846;9.230;2024-01-30T11:27:44;10.70;98.20
680;DHT22;322;48.846;9.230;2024-01-30T11:30:21;10.70;98.30
680;DHT22;322;48.846;9.230;2024-01-30T11:33:03;10.70;97.00
680;DHT22;322;48.846;9.230;2024-01-30T11:35:34;10.70;96.50
680;DHT22;322;48.846;9.230;2024-01-30T11:38:04;10.60;97.60
680;DHT22;322;48.846;9.230;2024-01-30T11:40:33;10.70;97.70
680;DHT22;322;48.846;9.230;2024-01-30T11:43:03;10.90;96.30
680;DHT22;322;48.846;9.230;2024-01-30T11:45:32;10.90;96.70
680;DHT22;322;48.846;9.230;2024-01-30T11:48:01;11.00;96.40
680;DHT22;322;48.846;9.230;2024-01-30T11:50:31;11.20;95.70
680;DHT22;322;48.846;9.230;2024-01-30T11:53:02;11.30;95.50
680;DHT22;322;48.846;9.230;2024-01-30T11:55:31;11.50;96.00
680;DHT22;322;48.846;9.230;2024-01-30T11:58:01;11.60;95.50
680;DHT22;322;48.846;9.230;2024-01-30T12:00:31;11.70;95.70
680;DHT22;322;48.846;9.230;2024-01-30T12:03:00;11.80;94.40
680;DHT22;322;48.846;9.230;2024-01-30T12:05:29;11.80;95.30
680;DHT22;322;48.846;9.230;2024-01-30T12:07:58;11.80;95.20
680;DHT22;322;48.846;9.230;2024-01-30T12:10:29;11.80;95.40
680;DHT22;322;48.846;9.230;2024-01-30T12:13:00;11.80;95.10
680;DHT22;322;48.846;9.230;2024-01-30T12:15:29;11.70;94.60
680;DHT22;322;48.846;9.230;2024-01-30T12:18:04;11.80;94.90
680;DHT22;322;48.846;9.230;2024-01-30T12:20:33;11.90;95.10
680;DHT22;322;48.846;9.230;2024-01-30T12:23:01;11.90;94.00
680;DHT22;322;48.846;9.230;2024-01-30T12:25:31;11.80;94.20
680;DHT22;322;48.846;9.230;2024-01-30T12:27:59;11.70;94.90
680;DHT22;322;48.846;9.230;2024-01-30T12:30:27;11.70;94.80
680;DHT22;322;48.846;9.230;2024-01-30T12:33:02;11.80;95.00
680;DHT22;322;48.846;9.230;2024-01-30T12:35:32;11.90;95.10
680;DHT22;322;48.846;9.230;2024-01-30T12:38:03;11.80;94.70
680;DHT22;322;48.846;9.230;2024-01-30T12:40:33;11.90;94.40
680;DHT22;322;48.846;9.230;2024-01-30T12:43:03;11.90;95.40
680;DHT22;322;48.846;9.230;2024-01-30T12:45:31;12.00;93.50
680;DHT22;322;48.846;9.230;2024-01-30T12:47:59;11.70;93.10
680;DHT22;322;48.846;9.230;2024-01-30T12:50:27;11.60;93.60
680;DHT22;322;48.846;9.230;2024-01-30T12:52:58;11.40;93.90
680;DHT22;322;48.846;9.230;2024-01-30T12:55:26;11.20;94.30
680;DHT22;322;48.846;9.230;2024-01-30T12:57:56;11.20;94.30
680;DHT22;322;48.846;9.230;2024-01-30T13:00:26;11.20;94.40
680;DHT22;322;48.846;9.230;2024-01-30T13:02:54;11.20;94.40
680;DHT22;322;48.846;9.230;2024-01-30T13:05:22;11.40;94.20
680;DHT22;322;48.846;9.230;2024-01-30T13:07:51;11.50;93.40
680;DHT22;322;48.846;9.230;2024-01-30T13:10:20;11.40;93.60
680;DHT22;322;48.846;9.230;2024-01-30T13:12:48;11.50;94.00
680;DHT22;322;48.846;9.230;2024-01-30T13:15:17;11.40;94.30
680;DHT22;322;48.846;9.230;2024-01-30T13:17:45;11.50;95.40
680;DHT22;322;48.846;9.230;2024-01-30T13:20:14;11.60;95.60
680;DHT22;322;48.846;9.230;2024-01-30T13:22:47;11.80;95.20
680;DHT22;322;48.846;9.230;2024-01-30T13:25:16;11.90;95.10
680;DHT22;322;48.846;9.230;2024-01-30T13:27:44;12.10;94.80
680;DHT22;322;48.846;9.230;2024-01-30T13:30:12;12.40;94.40
680;DHT22;322;48.846;9.230;2024-01-30T13:32:42;12.60;93.90
680;DHT22;322;48.846;9.230;2024-01-30T13:35:11;12.80;93.10
680;DHT22;322;48.846;9.230;2024-01-30T13:37:39;13.00;92.80
680;DHT22;322;48.846;9.230;2024-01-30T13:40:09;12.90;91.70
680;DHT22;322;48.846;9.230;2024-01-30T13:42:40;12.90;92.00
680;DHT22;322;48.846;9.230;2024-01-30T13:45:08;13.00;92.20
680;DHT22;322;48.846;9.230;2024-01-30T13:47:38;12.80;91.70
680;DHT22;322;48.846;9.230;2024-01-30T13:50:13;12.70;91.60
680;DHT22;322;48.846;9.230;2024-01-30T13:52:43;12.60;91.70
680;DHT22;322;48.846;9.230;2024-01-30T13:55:12;12.40;90.90
680;DHT22;322;48.846;9.230;2024-01-30T13:57:40;12.10;91.40
680;DHT22;322;48.846;9.230;2024-01-30T14:00:09;12.00;92.10
680;DHT22;322;48.846;9.230;2024-01-30T14:02:38;12.00;92.50
680;DHT22;322;48.846;9.230;2024-01-30T14:05:08;12.10;92.70
680;DHT22;322;48.846;9.230;2024-01-30T14:07:37;12.10;92.80
680;DHT22;322;48.846;9.230;2024-01-30T14:10:07;12.10;92.20
680;DHT22;322;48.846;9.230;2024-01-30T14:12:39;12.10;91.10
680;DHT22;322;48.846;9.230;2024-01-30T14:15:08;12.00;91.20
680;DHT22;322;48.846;9.230;2024-01-30T14:17:53;11.70;91.70
680;DHT22;322;48.846;9.230;2024-01-30T14:20:23;11.70;92.90
680;DHT22;322;48.846;9.230;2024-01-30T14:22:51;11.60;93.20
680;DHT22;322;48.846;9.230;2024-01-30T14:25:25;11.50;91.90
680;DHT22;322;48.846;9.230;2024-01-30T14:27:54;11.50;92.00
680;DHT22;322;48.846;9.230;2024-01-30T14:30:22;11.40;92.10
680;DHT22;322;48.846;9.230;2024-01-30T14:32:50;11.30;91.80
680;DHT22;322;48.846;9.230;2024-01-30T14:35:18;11.20;92.00
680;DHT22;322;48.846;9.230;2024-01-30T14:37:48;11.20;93.00
680;DHT22;322;48.846;9.230;2024-01-30T14:40:17;11.10;93.20
680;DHT22;322;48.846;9.230;2024-01-30T14:42:46;11.00;92.60
680;DHT22;322;48.846;9.230;2024-01-30T14:45:14;11.00;92.60
680;DHT22;322;48.846;9.230;2024-01-30T14:47:45;10.90;92.90
680;DHT22;322;48.846;9.230;2024-01-30T14:50:14;10.80;93.70
680;DHT22;322;48.846;9.230;2024-01-30T14:52:43;10.70;94.10
680;DHT22;322;48.846;9.230;2024-01-30T14:55:13;10.70;94.10
680;DHT22;322;48.846;9.230;2024-01-30T14:57:41;10.70;94.80
680;DHT22;322;48.846;9.230;2024-01-30T15:00:12;10.70;95.70
680;DHT22;322;48.846;9.230;2024-01-30T15:02:41;10.50;95.80
680;DHT22;322;48.846;9.230;2024-01-30T15:05:09;10.50;96.10
680;DHT22;322;48.846;9.230;2024-01-30T15:07:38;10.40;95.40
680;DHT22;322;48.846;9.230;2024-01-30T15:10:07;10.30;95.40
680;DHT22;322;48.846;9.230;2024-01-30T15:12:38;10.30;95.20
680;DHT22;322;48.846;9.230;2024-01-30T15:15:07;10.20;95.60
680;DHT22;322;48.846;9.230;2024-01-30T15:17:36;10.10;95.90
680;DHT22;322;48.846;9.230;2024-01-30T15:20:05;10.00;96.40
680;DHT22;322;48.846;9.230;2024-01-30T15:22:33;9.90;97.70
680;DHT22;322;48.846;9.230;2024-01-30T15:25:02;9.90;98.30
680;DHT22;322;48.846;9.230;2024-01-30T15:27:30;9.80;99.00
680;DHT22;322;48.846;9.230;2024-01-30T15:30:00;9.80;99.20
680;DHT22;322;48.846;9.230;2024-01-30T15:32:28;9.70;99.90
680;DHT22;322;48.846;9.230;2024-01-30T15:34:55;9.60;99.90
680;DHT22;322;48.846;9.230;2024-01-30T15:37:27;9.40;99.90
680;DHT22;322;48.846;9.230;2024-01-30T15:39:55;9.30;99.90
680;DHT22;322;48.846;9.230;2024-01-30T15:42:23;9.20;99.90
680;DHT22;322;48.846;9.230;2024-01-30T15:44:51;9.10;99.90
680;DHT22;322;48.846;9.230;2024-01-30T15:47:21;9.00;99.90
680;DHT22;322;48.846;9.230;2024-01-30T15:49:49;8.90;99.90
680;DHT22;322;48.846;9.230;2024-01-30T15:52:17;8.80;99.90
680;DHT22;322;48.846;9.230;2024-01-30T15:54:46;8.70;99.90
680;DHT22;322;48.846;9.230;2024-01-30T15:57:14;8.70;99.90
680;DHT22;322;48.846;9.230;2024-01-30T15:59:42;8.60;99.90
680;DHT22;322;48.846;9.230;2024-01-30T16:02:10;8.50;99.90
680;DHT22;322;48.846;9.230;2024-01-30T16:04:39;8.50;99.90
680;DHT22;322;48.846;9.230;2024-01-30T16:07:08;8.70;99.90
680;DHT22;322;48.846;9.230;2024-01-30T16:09:35;8.80;99.90
680;DHT22;322;48.846;9.230;2024-01-30T16:12:04;8.80;99.90
680;DHT22;322;48.846;9.230;2024-01-30T16:14:32;8.60;99.90
680;DHT22;322;48.846;9.230;2024-01-30T16:17:03;8.50;99.90
680;DHT22;322;48.846;9.230;2024-01-30T16:19:31;8.30;99.90
680;DHT22;322;48.846;9.230;2024-01-30T16:22:01;8.20;99.90
680;DHT22;322;48.846;9.230;2024-01-30T16:24:30;8.10;99.90
680;DHT22;322;48.846;9.230;2024-01-30T16:26:58;8.00;99.90
680;DHT22;322;48.846;9.230;2024-01-30T16:29:26;7.90;99.90
680;DHT22;322;48.846;9.230;2024-01-30T16:31:54;7.90;99.90
680;DHT22;322;48.846;9.230;2024-01-30T16:34:22;7.80;99.90
680;DHT22;322;48.846;9.230;2024-01-30T16:36:50;7.80;99.90
680;DHT22;322;48.846;9.230;2024-01-30T16:39:20;7.70;99.90
680;DHT22;322;48.846;9.230;2024-01-30T16:41:48;7.70;99.90
680;DHT22;322;48.846;9.230;2024-01-30T16:44:16;7.60;99.90
680;DHT22;322;48.846;9.230;2024-01-30T16:46:44;7.50;99.90
680;DHT22;322;48.846;9.230;2024-01-30T16:49:15;7.40;99.90
680;DHT22;322;48.846;9.230;2024-01-30T16:51:43;7.40;99.90
680;DHT22;322;48.846;9.230;2024-01-30T16:54:11;7.40;99.90
680;DHT22;322;48.846;9.230;2024-01-30T16:56:40;7.40;99.90